Time;durP1;ratioP1;P1;durP2;ratioP2;P2;SDS_P1;SDS_P2;PMS_P1;PMS_P2;Temp;Humidity;BMP_temperature;BMP_pressure;BME280_temperature;BME280_humidity;BME280_pressure;Samples;Min_cycle;Max_cycle;Signal;HPM_P1;HPM_P2
2022/09/16 11:20:01;;;;;;;4.55;1.10;;;15.70;65.60;;;;;;5075188;27;20955;-63
2022/09/16 11:22:35;;;;;;;1.75;0.93;;;15.40;67.50;;;;;;5062412;28;20024;-63
2022/09/16 11:25:25;;;;;;;3.63;1.17;;;15.40;67.50;;;;;;5071342;28;20024;-64
2022/09/16 11:28:19;;;;;;;4.38;1.30;;;15.30;67.90;;;;;;5068978;28;20029;-65
2022/09/16 11:31:09;;;;;;;5.05;1.30;;;15.30;67.60;;;;;;5064362;28;20029;-64
2022/09/16 11:33:47;;;;;;;4.15;1.10;;;15.20;68.50;;;;;;5065107;28;20392;-64
2022/09/16 11:36:35;;;;;;;2.92;1.10;;;15.10;69.50;;;;;;5076625;28;20119;-64
2022/09/16 11:39:23;;;;;;;1.73;0.88;;;15.10;69.40;;;;;;5082666;28;20039;-64
2022/09/16 11:41:59;;;;;;;3.35;1.10;;;15.00;69.70;;;;;;5084201;28;20016;-65
2022/09/16 11:44:38;;;;;;;1.80;0.80;;;15.00;70.00;;;;;;5081285;28;20419;-65
2022/09/16 11:47:56;;;;;;;3.35;1.00;;;14.90;71.00;;;;;;5078848;28;20560;-65
2022/09/16 11:50:30;;;;;;;2.70;0.93;;;14.90;71.10;;;;;;5001534;28;20030;-65
2022/09/16 11:53:27;;;;;;;3.95;0.85;;;14.80;71.50;;;;;;5063028;28;20025;-65
2022/09/16 11:56:03;;;;;;;1.88;0.98;;;14.80;70.60;;;;;;5081651;28;20043;-65
2022/09/16 11:58:38;;;;;;;6.32;1.00;;;14.80;71.00;;;;;;5083074;28;20044;-66
2022/09/16 12:01:30;;;;;;;2.00;0.90;;;14.70;70.90;;;;;;5083653;28;20013;-65
2022/09/16 12:04:32;;;;;;;3.97;1.27;;;14.60;71.80;;;;;;5068971;28;20043;-65
2022/09/16 12:07:35;;;;;;;2.58;0.73;;;14.60;71.60;;;;;;5061590;28;20104;-65
2022/09/16 12:10:23;;;;;;;3.47;1.02;;;14.50;71.70;;;;;;5049968;28;20032;-65
2022/09/16 12:13:05;;;;;;;3.10;0.90;;;14.50;72.60;;;;;;5074113;28;20260;-65
2022/09/16 12:15:47;;;;;;;2.03;0.88;;;14.40;72.30;;;;;;5059329;28;20488;-64
2022/09/16 12:18:54;;;;;;;3.28;0.90;;;14.30;72.90;;;;;;5063790;28;20110;-64
2022/09/16 12:21:25;;;;;;;1.88;0.90;;;14.20;72.90;;;;;;5052311;28;20111;-65
2022/09/16 12:24:11;;;;;;;3.13;1.08;;;14.10;73.60;;;;;;5052333;28;20031;-65
2022/09/16 12:26:57;;;;;;;3.90;1.00;;;14.10;73.50;;;;;;5052351;28;20071;-64
2022/09/16 12:29:31;;;;;;;5.00;1.08;;;14.10;73.60;;;;;;5058233;28;20086;-65
2022/09/16 12:32:08;;;;;;;5.60;1.10;;;14.10;73.40;;;;;;5053536;28;20032;-65
2022/09/16 12:34:54;;;;;;;3.50;0.77;;;14.20;73.50;;;;;;5054654;28;21275;-64
2022/09/16 12:37:42;;;;;;;6.57;0.70;;;14.20;74.40;;;;;;5050945;28;20091;-65
2022/09/16 12:40:37;;;;;;;2.67;0.80;;;14.20;73.60;;;;;;5048972;28;20084;-64
2022/09/16 12:43:33;;;;;;;4.13;1.33;;;14.20;73.30;;;;;;5038480;28;20095;-66
2022/09/16 12:46:05;;;;;;;3.63;0.70;;;14.30;72.80;;;;;;4999432;28;20865;-65
2022/09/16 12:48:35;;;;;;;3.33;0.90;;;14.40;72.90;;;;;;5049403;28;20393;-65
2022/09/16 12:51:40;;;;;;;1.27;0.57;;;14.40;73.20;;;;;;5045709;28;20546;-65
2022/09/16 12:54:26;;;;;;;1.65;0.57;;;14.40;73.40;;;;;;5065725;28;20484;-65
2022/09/16 12:57:17;;;;;;;0.85;0.55;;;14.40;72.50;;;;;;5048225;28;20053;-65
2022/09/16 13:00:18;;;;;;;2.63;0.90;;;14.30;73.10;;;;;;5037361;28;20087;-66
2022/09/16 13:02:56;;;;;;;3.72;0.90;;;14.40;73.40;;;;;;5051595;28;20036;-65
2022/09/16 13:05:36;;;;;;;3.65;0.70;;;14.50;73.20;;;;;;5050151;28;20021;-65
2022/09/16 13:08:28;;;;;;;2.58;0.50;;;14.60;72.10;;;;;;5051285;28;20029;-65
2022/09/16 13:10:59;;;;;;;4.40;1.23;;;14.60;72.30;;;;;;5050576;28;20821;-65
2022/09/16 13:13:46;;;;;;;6.50;1.25;;;14.70;72.50;;;;;;5051468;28;20035;-65
2022/09/16 13:16:14;;;;;;;1.63;0.52;;;14.70;72.30;;;;;;5051233;28;20380;-65
2022/09/16 13:18:45;;;;;;;4.10;0.70;;;14.70;72.30;;;;;;5049719;28;20078;-65
2022/09/16 13:21:23;;;;;;;1.75;0.60;;;14.80;71.40;;;;;;5051299;28;20096;-65
2022/09/16 13:24:05;;;;;;;1.52;0.60;;;14.80;71.70;;;;;;5049770;28;20473;-65
2022/09/16 13:26:41;;;;;;;4.68;0.90;;;14.80;73.10;;;;;;5051239;28;20407;-65
2022/09/16 13:29:43;;;;;;;3.40;0.80;;;14.80;72.30;;;;;;5047474;28;20021;-65
2022/09/16 13:32:42;;;;;;;7.78;2.08;;;14.70;72.60;;;;;;5000009;28;20041;-65
2022/09/16 13:35:19;;;;;;;3.78;0.73;;;14.70;73.60;;;;;;5050628;28;20555;-65
2022/09/16 13:37:53;;;;;;;2.92;0.70;;;14.60;75.00;;;;;;5049235;28;20124;-65
2022/09/16 13:40:24;;;;;;;1.05;0.40;;;14.60;73.90;;;;;;5030768;28;20025;-65
2022/09/16 13:43:12;;;;;;;2.58;0.73;;;14.60;74.10;;;;;;5031012;28;20037;-65
2022/09/16 13:45:45;;;;;;;2.70;0.85;;;14.50;74.90;;;;;;5037466;28;20378;-65
2022/09/16 13:48:25;;;;;;;2.20;0.85;;;14.40;74.60;;;;;;5050461;28;20029;-65
2022/09/16 13:50:59;;;;;;;2.33;0.73;;;14.40;75.70;;;;;;5045291;28;20013;-65
2022/09/16 13:53:36;;;;;;;4.32;1.77;;;14.30;76.10;;;;;;5044359;28;20057;-65
2022/09/16 13:56:44;;;;;;;1.35;0.60;;;14.30;75.90;;;;;;5030425;28;20040;-64
2022/09/16 13:59:22;;;;;;;2.30;0.80;;;14.20;77.30;;;;;;5015082;28;20037;-65
2022/09/16 14:02:00;;;;;;;2.22;0.60;;;14.20;76.90;;;;;;5045335;28;20052;-64
2022/09/16 14:04:58;;;;;;;2.72;0.98;;;14.10;77.60;;;;;;5047519;28;20358;-64
2022/09/16 14:07:28;;;;;;;2.50;0.90;;;14.20;77.30;;;;;;5047221;28;20021;-67
2022/09/16 14:10:19;;;;;;;4.15;0.80;;;14.20;77.10;;;;;;5031812;28;20022;-67
2022/09/16 14:13:12;;;;;;;2.08;0.85;;;14.20;77.00;;;;;;5031459;28;20025;-68
2022/09/16 14:15:49;;;;;;;4.82;0.77;;;14.20;77.80;;;;;;5036084;28;20052;-67
2022/09/16 14:18:30;;;;;;;6.63;1.92;;;14.30;77.90;;;;;;5049668;28;20076;-67
2022/09/16 14:21:00;;;;;;;2.17;0.95;;;14.30;77.60;;;;;;5035140;28;20072;-66
2022/09/16 14:23:29;;;;;;;5.28;1.70;;;14.30;77.60;;;;;;5030376;28;20033;-66
2022/09/16 14:26:17;;;;;;;3.72;0.60;;;14.40;77.50;;;;;;5034019;28;20030;-67
2022/09/16 14:28:45;;;;;;;4.47;0.70;;;14.40;76.30;;;;;;5047714;28;20021;-68
2022/09/16 14:31:25;;;;;;;1.98;0.82;;;14.60;75.90;;;;;;5048339;28;20481;-66
2022/09/16 14:34:00;;;;;;;2.10;0.98;;;14.80;74.90;;;;;;5049451;28;20136;-66
2022/09/16 14:36:39;;;;;;;1.65;0.60;;;14.80;75.00;;;;;;5049938;28;20036;-67
2022/09/16 14:39:06;;;;;;;3.60;0.68;;;14.90;74.60;;;;;;5048902;28;20064;-66
2022/09/16 14:41:51;;;;;;;3.90;0.80;;;15.00;73.60;;;;;;5049806;28;20082;-66
2022/09/16 14:44:25;;;;;;;5.00;0.70;;;15.00;73.90;;;;;;5049581;28;20090;-62
2022/09/16 14:47:16;;;;;;;1.98;0.50;;;15.10;72.70;;;;;;5049626;28;20035;-62
2022/09/16 14:49:45;;;;;;;2.25;0.45;;;15.10;72.80;;;;;;5036254;28;20080;-64
2022/09/16 14:52:33;;;;;;;3.88;1.20;;;15.20;73.90;;;;;;5029674;28;20030;-64
2022/09/16 14:55:00;;;;;;;2.40;0.60;;;15.20;73.00;;;;;;5029912;28;20025;-64
2022/09/16 14:57:29;;;;;;;1.67;0.90;;;15.20;72.90;;;;;;5033630;28;20508;-62
2022/09/16 15:00:12;;;;;;;3.25;0.70;;;15.20;72.90;;;;;;5029495;28;20029;-63
2022/09/16 15:03:03;;;;;;;2.38;0.85;;;15.20;72.70;;;;;;5030927;28;20025;-63
2022/09/16 15:05:43;;;;;;;4.63;0.95;;;15.30;72.20;;;;;;5043930;28;20372;-63
2022/09/16 15:08:23;;;;;;;2.80;0.65;;;15.30;72.20;;;;;;5030672;28;20055;-63
2022/09/16 15:10:59;;;;;;;1.67;0.75;;;15.30;72.50;;;;;;5029524;28;20515;-64
2022/09/16 15:13:29;;;;;;;2.55;0.60;;;15.30;72.00;;;;;;5036215;28;20021;-64
2022/09/16 15:16:08;;;;;;;2.42;0.70;;;15.40;71.70;;;;;;5036195;28;20163;-64
2022/09/16 15:18:38;;;;;;;6.50;1.63;;;15.40;71.70;;;;;;5031929;28;20094;-64
2022/09/16 15:21:15;;;;;;;4.70;0.70;;;15.40;71.30;;;;;;5049212;28;20074;-64
2022/09/16 15:23:50;;;;;;;1.90;0.80;;;15.40;71.00;;;;;;5048914;28;20496;-63
2022/09/16 15:26:40;;;;;;;2.50;0.70;;;15.50;71.20;;;;;;5047580;28;20032;-64
2022/09/16 15:29:28;;;;;;;3.63;1.02;;;15.50;70.30;;;;;;5048997;28;20051;-64
2022/09/16 15:32:13;;;;;;;6.90;1.25;;;15.50;70.90;;;;;;5048988;28;20097;-63
2022/09/16 15:34:42;;;;;;;5.22;1.23;;;15.50;71.10;;;;;;5047545;28;20095;-64
2022/09/16 15:37:32;;;;;;;6.05;0.93;;;15.50;71.00;;;;;;5047804;28;20028;-64
2022/09/16 15:40:19;;;;;;;5.32;1.10;;;15.40;71.70;;;;;;5037491;28;20072;-64
2022/09/16 15:43:01;;;;;;;1.88;0.70;;;15.40;71.30;;;;;;5027753;28;20045;-64
2022/09/16 15:45:29;;;;;;;1.88;0.75;;;15.30;71.50;;;;;;5029579;28;20018;-63
2022/09/16 15:48:06;;;;;;;5.32;1.20;;;15.30;71.80;;;;;;5030264;28;20034;-63
2022/09/16 15:50:57;;;;;;;1.30;0.63;;;15.30;72.00;;;;;;5027997;28;20033;-64
2022/09/16 15:53:30;;;;;;;3.63;0.80;;;15.30;72.60;;;;;;5044605;28;20250;-63
2022/09/16 15:56:05;;;;;;;1.10;0.60;;;15.20;71.80;;;;;;5051903;28;20024;-63
2022/09/16 15:58:40;;;;;;;2.67;0.80;;;15.20;72.50;;;;;;5040368;28;20037;-68
2022/09/16 16:01:25;;;;;;;3.17;0.73;;;15.20;72.70;;;;;;5051116;28;20065;-63
2022/09/16 16:03:57;;;;;;;4.72;0.73;;;15.20;72.20;;;;;;5052308;28;20556;-63
2022/09/16 16:06:45;;;;;;;2.72;0.90;;;15.20;72.20;;;;;;5048097;28;20029;-63
2022/09/16 16:09:42;;;;;;;2.80;0.70;;;15.10;73.40;;;;;;5035301;28;20030;-63
2022/09/16 16:12:13;;;;;;;3.03;1.15;;;15.10;72.50;;;;;;5025160;28;20033;-63
2022/09/16 16:14:40;;;;;;;2.70;0.80;;;15.10;72.30;;;;;;5036582;28;20504;-63
2022/09/16 16:17:22;;;;;;;2.03;0.88;;;15.10;73.00;;;;;;5050357;28;20106;-63
2022/09/16 16:19:50;;;;;;;1.50;0.63;;;15.00;72.70;;;;;;5040255;28;20033;-63
2022/09/16 16:22:19;;;;;;;2.88;0.57;;;15.00;72.50;;;;;;5039743;28;20025;-63
2022/09/16 16:24:46;;;;;;;2.47;0.80;;;14.90;73.60;;;;;;5046498;28;20117;-63
2022/09/16 16:27:13;;;;;;;2.53;0.70;;;14.90;73.10;;;;;;5052111;28;20021;-62
2022/09/16 16:29:41;;;;;;;0.68;0.40;;;14.80;74.20;;;;;;5051841;28;20036;-62
2022/09/16 16:32:11;;;;;;;2.05;0.70;;;14.80;74.60;;;;;;5048924;28;20032;-63
2022/09/16 16:34:43;;;;;;;2.70;0.80;;;14.80;74.20;;;;;;5047853;28;20021;-62
2022/09/16 16:37:14;;;;;;;1.90;0.60;;;14.80;73.80;;;;;;5049629;28;20045;-63
2022/09/16 16:39:41;;;;;;;1.20;0.50;;;14.80;73.70;;;;;;5050055;28;20513;-63
2022/09/16 16:42:13;;;;;;;4.57;1.00;;;14.80;74.50;;;;;;5050518;28;20025;-63
2022/09/16 16:44:41;;;;;;;1.30;0.50;;;14.80;74.40;;;;;;5051565;28;20500;-63
2022/09/16 16:47:09;;;;;;;2.50;0.73;;;14.80;74.40;;;;;;5049932;28;20044;-63
2022/09/16 16:49:37;;;;;;;3.08;0.70;;;14.70;74.00;;;;;;5051355;28;20112;-63
2022/09/16 16:52:05;;;;;;;2.28;0.60;;;14.70;74.70;;;;;;5051944;28;20017;-64
2022/09/16 16:54:34;;;;;;;1.77;0.95;;;14.60;74.80;;;;;;5038232;28;20482;-63
2022/09/16 16:57:04;;;;;;;4.10;1.20;;;14.70;75.50;;;;;;5042141;28;20112;-63
2022/09/16 16:59:32;;;;;;;1.70;0.80;;;14.60;75.70;;;;;;5046903;28;20036;-63
2022/09/16 17:01:59;;;;;;;3.88;0.95;;;14.60;75.50;;;;;;5051196;28;20025;-63
2022/09/16 17:04:26;;;;;;;2.65;0.70;;;14.60;75.40;;;;;;5032610;28;20040;-63
2022/09/16 17:06:54;;;;;;;2.80;0.98;;;14.60;76.20;;;;;;5031141;28;20037;-62
2022/09/16 17:09:21;;;;;;;1.77;0.80;;;14.70;76.20;;;;;;5033579;28;20439;-62
2022/09/16 17:11:59;;;;;;;2.67;0.57;;;14.60;76.20;;;;;;5031556;28;20036;-63
2022/09/16 17:14:31;;;;;;;2.97;0.85;;;14.50;76.20;;;;;;5033640;28;20099;-62
2022/09/16 17:17:01;;;;;;;1.58;0.60;;;14.50;76.40;;;;;;5037141;28;20096;-63
2022/09/16 17:19:31;;;;;;;2.38;0.60;;;14.50;76.30;;;;;;5044349;28;20057;-63
2022/09/16 17:21:58;;;;;;;3.40;0.75;;;14.50;76.90;;;;;;5031244;28;20032;-63
2022/09/16 17:24:25;;;;;;;1.85;0.60;;;14.40;77.20;;;;;;5040769;28;20025;-63
2022/09/16 17:26:52;;;;;;;3.08;0.55;;;14.40;77.40;;;;;;5050786;28;20021;-63
2022/09/16 17:29:19;;;;;;;3.92;0.68;;;14.40;77.10;;;;;;5031086;28;20033;-63
2022/09/16 17:31:47;;;;;;;1.63;0.60;;;14.40;77.20;;;;;;5044554;28;20021;-62
2022/09/16 17:34:15;;;;;;;2.50;0.73;;;14.40;77.70;;;;;;5048783;28;20405;-63
2022/09/16 17:36:46;;;;;;;3.33;0.70;;;14.40;78.10;;;;;;5036017;28;20028;-63
2022/09/16 17:39:17;;;;;;;1.58;0.57;;;14.30;78.70;;;;;;5029330;28;20505;-63
2022/09/16 17:41:47;;;;;;;0.88;0.50;;;14.20;79.60;;;;;;5031018;28;20095;-64
2022/09/16 17:44:15;;;;;;;5.10;0.88;;;14.10;79.10;;;;;;5040262;28;20551;-64
2022/09/16 17:46:43;;;;;;;3.90;0.73;;;14.10;79.20;;;;;;5050870;28;20021;-64
2022/09/16 17:49:20;;;;;;;1.92;0.60;;;14.00;79.70;;;;;;5046978;28;20028;-64
2022/09/16 17:51:48;;;;;;;3.28;0.63;;;13.90;80.30;;;;;;5029380;28;20029;-63
2022/09/16 17:54:15;;;;;;;3.83;0.88;;;13.80;81.10;;;;;;5029188;28;20032;-63
2022/09/16 17:56:43;;;;;;;5.63;0.73;;;13.80;81.30;;;;;;5029226;28;20026;-64
2022/09/16 17:59:12;;;;;;;1.73;0.75;;;13.60;82.00;;;;;;5044204;28;20087;-64
2022/09/16 18:01:39;;;;;;;3.28;1.45;;;13.50;82.30;;;;;;5044974;28;20014;-64
2022/09/16 18:04:07;;;;;;;5.50;0.90;;;13.30;84.10;;;;;;5030620;28;20513;-64
2022/09/16 18:06:45;;;;;;;5.88;0.70;;;13.30;83.30;;;;;;5046034;28;20040;-63
2022/09/16 18:09:15;;;;;;;1.48;0.77;;;13.20;83.90;;;;;;5038440;28;20108;-64
2022/09/16 18:11:43;;;;;;;2.47;0.60;;;13.00;85.00;;;;;;5030370;28;20394;-63
2022/09/16 18:14:12;;;;;;;4.78;0.80;;;12.90;85.40;;;;;;5030485;28;20020;-63
2022/09/16 18:16:40;;;;;;;3.28;0.60;;;12.90;85.60;;;;;;5041939;28;20036;-64
2022/09/16 18:19:08;;;;;;;4.70;0.68;;;12.70;86.30;;;;;;5048199;28;20048;-64
2022/09/16 18:21:36;;;;;;;2.67;0.88;;;12.70;86.30;;;;;;5034895;28;20021;-64
2022/09/16 18:24:05;;;;;;;2.70;0.82;;;12.60;86.30;;;;;;5040284;28;20032;-64
2022/09/16 18:26:32;;;;;;;2.83;0.57;;;12.40;86.90;;;;;;5049984;28;20033;-64
2022/09/16 18:29:01;;;;;;;4.45;1.08;;;12.30;87.40;;;;;;5049040;28;20116;-64
2022/09/16 18:31:29;;;;;;;2.70;0.98;;;12.10;88.10;;;;;;5034266;28;20013;-64
2022/09/16 18:33:57;;;;;;;3.60;0.65;;;12.00;89.00;;;;;;5049612;28;20056;-64
2022/09/16 18:36:25;;;;;;;3.50;0.77;;;11.90;89.80;;;;;;5047802;28;20017;-64
2022/09/16 18:38:56;;;;;;;2.50;0.68;;;11.80;90.30;;;;;;5047889;28;20041;-64
2022/09/16 18:41:25;;;;;;;3.75;0.70;;;11.70;90.50;;;;;;5049432;28;20056;-64
2022/09/16 18:43:58;;;;;;;4.85;0.55;;;11.70;90.70;;;;;;5032800;28;20478;-64
2022/09/16 18:46:31;;;;;;;3.55;0.70;;;11.70;91.30;;;;;;5028397;28;20025;-64
2022/09/16 18:48:58;;;;;;;3.03;0.70;;;11.70;90.70;;;;;;5029750;28;20437;-64
2022/09/16 18:51:28;;;;;;;4.35;0.80;;;11.70;90.70;;;;;;5029723;28;20068;-64
2022/09/16 18:54:01;;;;;;;3.42;0.73;;;11.80;90.60;;;;;;5029607;28;20026;-64
2022/09/16 18:56:33;;;;;;;2.70;0.70;;;11.80;90.70;;;;;;5029575;28;20044;-64
2022/09/16 18:59:21;;;;;;;2.40;0.82;;;11.70;90.70;;;;;;5044589;28;20037;-64
2022/09/16 19:01:49;;;;;;;2.97;0.80;;;11.70;90.90;;;;;;5047755;28;20029;-64
2022/09/16 19:04:18;;;;;;;1.50;0.45;;;11.70;90.90;;;;;;5049076;28;20492;-63
2022/09/16 19:06:48;;;;;;;4.28;0.80;;;11.60;91.00;;;;;;5038333;28;20071;-64
2022/09/16 19:09:17;;;;;;;2.75;0.60;;;11.50;91.10;;;;;;5028222;28;20025;-64
2022/09/16 19:11:44;;;;;;;1.90;0.50;;;11.40;91.40;;;;;;5029413;28;20367;-64
2022/09/16 19:14:13;;;;;;;2.33;0.82;;;11.30;91.70;;;;;;5044740;28;20031;-64
2022/09/16 19:16:44;;;;;;;2.35;0.45;;;11.30;92.10;;;;;;5047717;28;20036;-63
2022/09/16 19:19:14;;;;;;;3.50;0.85;;;11.20;92.00;;;;;;5047419;28;20052;-64
2022/09/16 19:21:42;;;;;;;7.05;0.73;;;11.20;92.00;;;;;;5049365;28;20017;-64
2022/09/16 19:24:21;;;;;;;2.40;0.65;;;11.10;92.20;;;;;;5040552;28;20033;-64
2022/09/16 19:26:53;;;;;;;1.17;0.55;;;11.00;92.40;;;;;;5033642;28;20029;-64
2022/09/16 19:29:21;;;;;;;3.10;0.77;;;10.90;92.90;;;;;;5037939;28;20029;-64
2022/09/16 19:31:53;;;;;;;2.97;0.90;;;10.80;92.90;;;;;;5040190;28;20428;-64
2022/09/16 19:34:21;;;;;;;3.67;0.98;;;10.80;93.30;;;;;;5044894;28;20040;-64
2022/09/16 19:36:49;;;;;;;4.95;1.20;;;10.70;93.50;;;;;;5051197;28;20013;-64
2022/09/16 19:39:16;;;;;;;2.33;0.88;;;10.60;94.00;;;;;;5051354;28;20045;-64
2022/09/16 19:41:44;;;;;;;4.40;1.02;;;10.50;94.30;;;;;;5051516;28;20029;-64
2022/09/16 19:44:14;;;;;;;4.43;0.90;;;10.50;94.50;;;;;;5052677;28;20493;-64
2022/09/16 19:46:43;;;;;;;6.35;1.17;;;10.50;94.70;;;;;;5051471;28;20025;-64
2022/09/16 19:49:16;;;;;;;3.47;0.95;;;10.40;94.60;;;;;;5052635;28;20032;-64
2022/09/16 19:51:43;;;;;;;8.02;2.65;;;10.30;94.90;;;;;;5051066;28;20021;-64
2022/09/16 19:54:11;;;;;;;4.70;1.10;;;10.20;95.10;;;;;;5041018;28;20026;-64
2022/09/16 19:56:38;;;;;;;3.17;1.10;;;10.20;95.30;;;;;;5032551;28;20021;-65
2022/09/16 19:59:06;;;;;;;3.72;1.52;;;10.10;95.40;;;;;;5033224;28;20486;-64
2022/09/16 20:01:35;;;;;;;3.92;1.08;;;10.10;95.60;;;;;;5033003;28;20108;-64
2022/09/16 20:04:05;;;;;;;9.50;1.23;;;10.10;95.60;;;;;;5043419;28;20029;-64
2022/09/16 20:06:40;;;;;;;3.78;1.17;;;10.10;95.70;;;;;;5049626;28;20035;-63
2022/09/16 20:09:10;;;;;;;3.97;1.30;;;10.10;95.80;;;;;;5050844;28;20021;-64
2022/09/16 20:11:40;;;;;;;3.50;1.30;;;10.20;95.80;;;;;;5051451;28;20021;-64
2022/09/16 20:14:13;;;;;;;3.53;1.15;;;10.20;95.80;;;;;;5034734;28;20113;-63
2022/09/16 20:16:41;;;;;;;6.90;1.10;;;10.20;95.70;;;;;;5033675;28;20104;-64
2022/09/16 20:19:11;;;;;;;2.42;1.00;;;10.30;95.60;;;;;;5032691;28;20516;-64
2022/09/16 20:21:39;;;;;;;2.60;1.02;;;10.20;95.60;;;;;;5036428;28;20056;-64
2022/09/16 20:24:07;;;;;;;7.95;1.00;;;10.30;95.70;;;;;;5032737;28;20091;-63
2022/09/16 20:26:35;;;;;;;2.30;0.90;;;10.30;95.60;;;;;;5037805;28;20067;-64
2022/09/16 20:29:04;;;;;;;1.67;0.90;;;10.30;95.70;;;;;;5050186;28;20116;-64
2022/09/16 20:31:33;;;;;;;3.38;0.98;;;10.30;95.60;;;;;;5046094;28;20057;-63
2022/09/16 20:34:01;;;;;;;4.20;0.95;;;10.30;95.50;;;;;;5030833;28;20064;-63
2022/09/16 20:36:29;;;;;;;2.25;0.82;;;10.40;95.50;;;;;;5033180;28;20525;-64
2022/09/16 20:38:59;;;;;;;3.85;1.40;;;10.50;95.40;;;;;;5031953;28;20045;-63
2022/09/16 20:41:28;;;;;;;4.22;0.90;;;10.50;95.40;;;;;;5031566;28;20025;-64
2022/09/16 20:43:56;;;;;;;5.15;0.77;;;10.60;95.20;;;;;;5040144;28;20028;-63
2022/09/16 20:46:26;;;;;;;3.22;1.02;;;10.70;95.10;;;;;;5051903;28;20240;-64
2022/09/16 20:48:59;;;;;;;2.75;0.73;;;10.80;94.90;;;;;;5051495;28;20021;-64
2022/09/16 20:51:30;;;;;;;4.95;0.93;;;11.00;94.70;;;;;;5051597;28;20439;-63
2022/09/16 20:54:06;;;;;;;5.10;1.10;;;11.10;94.60;;;;;;5051277;28;20021;-63
2022/09/16 20:56:35;;;;;;;5.78;0.82;;;11.20;94.10;;;;;;5048499;28;20473;-63
2022/09/16 20:59:02;;;;;;;1.48;0.60;;;11.40;93.70;;;;;;5049101;28;20029;-63
2022/09/16 21:01:32;;;;;;;6.72;1.13;;;11.60;93.20;;;;;;5030408;28;20033;-64
2022/09/16 21:04:04;;;;;;;5.20;0.65;;;11.80;92.90;;;;;;5032382;28;20110;-63
2022/09/16 21:06:34;;;;;;;1.88;0.70;;;12.00;92.30;;;;;;5049840;28;20029;-63
2022/09/16 21:09:05;;;;;;;1.38;0.60;;;12.20;91.90;;;;;;5049592;28;20021;-64
2022/09/16 21:11:33;;;;;;;3.17;0.77;;;12.40;91.40;;;;;;5051563;28;20032;-64
2022/09/16 21:14:05;;;;;;;3.83;0.95;;;12.50;91.00;;;;;;5038010;28;20024;-64
2022/09/16 21:16:35;;;;;;;4.22;1.10;;;12.70;90.50;;;;;;5042003;28;20488;-64
2022/09/16 21:19:05;;;;;;;1.55;0.60;;;12.80;90.60;;;;;;5050867;28;20418;-63
2022/09/16 21:21:32;;;;;;;2.08;0.77;;;12.90;90.50;;;;;;5048093;28;20024;-63
2022/09/16 21:24:00;;;;;;;2.63;0.80;;;13.10;90.30;;;;;;5031535;28;20033;-63
2022/09/16 21:26:30;;;;;;;2.45;0.60;;;13.30;89.00;;;;;;5048438;28;20021;-63
2022/09/16 21:29:00;;;;;;;10.32;1.17;;;13.50;89.00;;;;;;5034753;28;20034;-62
2022/09/16 21:31:32;;;;;;;4.97;0.82;;;13.60;87.40;;;;;;5031377;28;20031;-62
2022/09/16 21:34:01;;;;;;;2.42;0.60;;;13.70;87.40;;;;;;5046513;28;20117;-62
2022/09/16 21:36:30;;;;;;;3.83;0.60;;;13.80;87.00;;;;;;5032260;28;20024;-63
2022/09/16 21:38:57;;;;;;;3.45;0.65;;;14.00;86.20;;;;;;5030964;28;20075;-63
2022/09/16 21:41:25;;;;;;;3.63;0.85;;;14.10;86.00;;;;;;5030890;28;20025;-63
2022/09/16 21:43:54;;;;;;;4.63;0.98;;;14.30;85.10;;;;;;5037223;28;20029;-63
2022/09/16 21:46:27;;;;;;;2.22;0.80;;;14.50;84.40;;;;;;5050854;28;20029;-64
2022/09/16 21:49:00;;;;;;;3.22;0.65;;;14.70;83.30;;;;;;5048823;28;20072;-63
2022/09/16 21:51:35;;;;;;;3.47;0.93;;;14.90;83.50;;;;;;5049953;28;20492;-64
2022/09/16 21:54:07;;;;;;;2.78;0.80;;;15.10;82.60;;;;;;5050153;28;20029;-64
2022/09/16 21:56:38;;;;;;;3.78;0.60;;;15.30;82.20;;;;;;5048909;28;20021;-64
2022/09/16 21:59:05;;;;;;;1.58;0.80;;;15.50;80.40;;;;;;5037565;28;20521;-64
2022/09/16 22:01:34;;;;;;;2.15;0.77;;;15.80;78.80;;;;;;5045087;28;20029;-63
2022/09/16 22:04:06;;;;;;;2.80;0.95;;;16.00;78.20;;;;;;5050150;28;20037;-63
2022/09/16 22:06:34;;;;;;;2.53;0.70;;;16.20;77.20;;;;;;5049976;28;20554;-64
2022/09/16 22:09:03;;;;;;;2.80;0.77;;;16.50;75.60;;;;;;5046785;28;20056;-64
2022/09/16 22:11:32;;;;;;;2.95;0.80;;;16.70;74.60;;;;;;5049707;28;20029;-63
2022/09/16 22:14:00;;;;;;;2.80;0.80;;;16.90;74.30;;;;;;5040310;28;20056;-63
2022/09/16 22:16:29;;;;;;;2.95;0.70;;;17.20;72.30;;;;;;5050234;28;20104;-61
2022/09/16 22:19:03;;;;;;;3.60;1.20;;;17.30;72.20;;;;;;5039231;28;20046;-62
2022/09/16 22:21:33;;;;;;;2.13;1.05;;;17.50;72.00;;;;;;5044932;28;20111;-62
2022/09/16 22:24:01;;;;;;;3.67;0.90;;;17.70;71.40;;;;;;5037488;28;20088;-62
2022/09/16 22:26:29;;;;;;;2.00;1.13;;;17.90;70.00;;;;;;5038992;28;20048;-62
2022/09/16 22:28:56;;;;;;;5.35;1.00;;;18.10;70.30;;;;;;5040333;28;20033;-62
2022/09/16 22:31:30;;;;;;;4.55;1.13;;;18.30;70.20;;;;;;5047633;28;20023;-62
2022/09/16 22:34:00;;;;;;;1.98;0.75;;;18.50;67.90;;;;;;5048009;28;20044;-62
2022/09/16 22:36:31;;;;;;;3.35;0.80;;;18.70;65.40;;;;;;5048206;28;20071;-62
2022/09/16 22:39:11;;;;;;;2.35;0.60;;;18.90;67.60;;;;;;5049290;28;20150;-62
2022/09/16 22:41:38;;;;;;;2.92;1.00;;;19.10;66.40;;;;;;5050328;28;20013;-62
2022/09/16 22:44:05;;;;;;;3.03;0.95;;;19.30;64.80;;;;;;5049444;28;20033;-62
2022/09/16 22:46:38;;;;;;;2.42;0.65;;;19.50;65.70;;;;;;5049805;28;20021;-62
2022/09/16 22:49:05;;;;;;;3.92;0.80;;;19.70;62.10;;;;;;5040607;28;20029;-60
2022/09/16 22:51:32;;;;;;;2.63;0.90;;;19.90;61.30;;;;;;5033589;28;20482;-61
2022/09/16 22:54:00;;;;;;;1.33;0.65;;;20.10;60.70;;;;;;5041576;28;20025;-69
2022/09/16 22:56:30;;;;;;;2.60;0.90;;;20.30;60.40;;;;;;5037341;28;20017;-67
2022/09/16 22:58:59;;;;;;;4.07;0.82;;;20.40;60.10;;;;;;5047536;28;20032;-67
2022/09/16 23:01:32;;;;;;;3.10;1.73;;;20.60;60.40;;;;;;5035981;28;20033;-67
2022/09/16 23:04:01;;;;;;;1.90;0.68;;;20.70;59.00;;;;;;5031863;28;20028;-68
2022/09/16 23:06:31;;;;;;;5.63;0.75;;;20.90;59.20;;;;;;5033289;28;20395;-68
2022/09/16 23:08:59;;;;;;;2.40;0.73;;;21.00;58.20;;;;;;5029371;28;20496;-67
2022/09/16 23:11:29;;;;;;;4.75;1.30;;;21.20;57.00;;;;;;5029748;28;20029;-68
2022/09/16 23:13:57;;;;;;;7.60;0.98;;;21.20;56.80;;;;;;5028320;28;20025;-68
2022/09/16 23:16:33;;;;;;;6.22;1.00;;;21.40;57.30;;;;;;5029599;28;20037;-68
2022/09/16 23:19:03;;;;;;;2.42;0.73;;;21.60;57.00;;;;;;5029359;28;20579;-68
2022/09/16 23:21:30;;;;;;;3.95;0.95;;;21.80;57.00;;;;;;5034855;28;20032;-68
2022/09/16 23:24:00;;;;;;;2.78;0.90;;;22.00;53.60;;;;;;5048789;28;20035;-67
2022/09/16 23:26:33;;;;;;;7.20;1.10;;;22.20;53.30;;;;;;5067761;28;20480;-68
2022/09/16 23:29:03;;;;;;;2.78;0.93;;;22.10;52.50;;;;;;5029488;28;20036;-68
2022/09/16 23:31:38;;;;;;;5.85;1.10;;;22.20;53.90;;;;;;5029573;28;20022;-66
2022/09/16 23:34:07;;;;;;;5.03;1.55;;;22.20;53.30;;;;;;5048122;28;20029;-71
2022/09/16 23:36:36;;;;;;;3.10;0.82;;;22.60;52.10;;;;;;5047629;28;20033;-70
2022/09/16 23:39:05;;;;;;;3.42;1.02;;;22.50;50.30;;;;;;5047596;28;20083;-69
2022/09/16 23:41:33;;;;;;;2.55;0.95;;;22.70;53.50;;;;;;5041923;28;20548;-70
2022/09/16 23:44:01;;;;;;;21.40;1.60;;;22.60;53.20;;;;;;5039849;28;20052;-69
2022/09/16 23:46:29;;;;;;;5.45;0.98;;;22.80;53.80;;;;;;5047675;28;20025;-70
2022/09/16 23:48:58;;;;;;;5.00;1.02;;;22.90;54.30;;;;;;5047738;28;20025;-69
2022/09/16 23:51:27;;;;;;;1.92;0.80;;;23.10;52.20;;;;;;5049020;28;20083;-69
2022/09/16 23:53:55;;;;;;;2.72;1.08;;;23.30;52.20;;;;;;5044346;28;20029;-68
2022/09/16 23:56:23;;;;;;;4.22;0.90;;;23.50;53.80;;;;;;5041342;28;20021;-69
2022/09/16 23:58:50;;;;;;;3.58;1.02;;;23.80;51.80;;;;;;5048933;28;20094;-70
